Kezdőlap
METAR-TAF:

METAR-TAF

Repülőterek :

Wolf Creek Pass

Pagosa Springs, Colorado, Amerikai Egyesült Államok

földrajzi szélesség: 37-27-05N, földrajzi hosszúság: 106-48-01W, magasság: 3584 m

Jelenlegi meteorológiai megfigyelések

A jelentés 13 perccel ezelõtt készült, 00:12 UTC
Dél-délnyugati szél 18 kt széllökések: 30 kt, déli és nyugat-délnyugati között változik
Hőmérséklet -2°C
Páratartalom 54%
Légköri nyomás 1018 hPa
Látótávolság: 16.1 km
Szórványos felhőzet 3900 lábon
Szórványos felhőzet 4800 lábon
Borult 5500 lábon

METAR: KCPW 050012Z AUTO 21018G30KT 180V240 10SM SCT039 SCT048 OVC055 M02/M10 A3006 RMK AO2

Idő: 18:25 (00:25 UTC)


TAF: hiányzik

Meteorológiai megfigyelések és előrejelzések több, mint 4000 repülőtéren (METAR és TAF jelentéseket).

A térképen piros és sárga pontok jelzik az elérhető meteorológiai állomásokat.

Mozgassa az egeret a pont fölött, hogy megjelenjen az állomás neve.

Azután kattintson az időjárási megfigyelések és előrejelzések megtekintéséhez.

A térkép megváltoztatása: kattintson a fekete keresztel jelölt zöld gombra ráközelítéshez, a vonallal jelölt zöld gombra távolításhoz, vagy a zöld nyilakra a szomszédos térképek eléréséhez.


METAR-TAF: